sensor_id;sensor_type;location;lat;lon;timestamp;temperature;humidity
32534;DHT22;18973;48.580;8.912;2023-01-31T00:01:04;3.10;99.90
32534;DHT22;18973;48.580;8.912;2023-01-31T00:03:30;3.20;99.90
32534;DHT22;18973;48.580;8.912;2023-01-31T00:05:55;3.10;99.90
32534;DHT22;18973;48.580;8.912;2023-01-31T00:08:21;3.10;99.90
32534;DHT22;18973;48.580;8.912;2023-01-31T00:10:47;3.20;99.90
32534;DHT22;18973;48.580;8.912;2023-01-31T00:13:12;3.10;99.90
32534;DHT22;18973;48.580;8.912;2023-01-31T00:15:38;3.20;99.90
32534;DHT22;18973;48.580;8.912;2023-01-31T00:18:04;3.00;99.90
32534;DHT22;18973;48.580;8.912;2023-01-31T00:20:29;2.90;99.90
32534;DHT22;18973;48.580;8.912;2023-01-31T00:22:55;2.80;99.90
32534;DHT22;18973;48.580;8.912;2023-01-31T00:25:21;2.80;99.90
32534;DHT22;18973;48.580;8.912;2023-01-31T00:27:46;2.80;99.90
32534;DHT22;18973;48.580;8.912;2023-01-31T00:30:12;2.60;99.90
32534;DHT22;18973;48.580;8.912;2023-01-31T00:32:38;2.60;99.90
32534;DHT22;18973;48.580;8.912;2023-01-31T00:35:04;2.50;99.90
32534;DHT22;18973;48.580;8.912;2023-01-31T00:37:29;2.40;99.90
32534;DHT22;18973;48.580;8.912;2023-01-31T00:39:55;2.60;99.90
32534;DHT22;18973;48.580;8.912;2023-01-31T00:42:21;2.60;99.90
32534;DHT22;18973;48.580;8.912;2023-01-31T00:44:46;2.50;99.90
32534;DHT22;18973;48.580;8.912;2023-01-31T00:47:12;2.30;99.90
32534;DHT22;18973;48.580;8.912;2023-01-31T00:49:38;2.30;99.90
32534;DHT22;18973;48.580;8.912;2023-01-31T00:52:04;2.30;99.90
32534;DHT22;18973;48.580;8.912;2023-01-31T00:54:29;2.10;99.90
32534;DHT22;18973;48.580;8.912;2023-01-31T00:56:55;2.10;99.90
32534;DHT22;18973;48.580;8.912;2023-01-31T00:59:21;2.10;99.90
32534;DHT22;18973;48.580;8.912;2023-01-31T01:01:46;2.00;99.90
32534;DHT22;18973;48.580;8.912;2023-01-31T01:04:12;2.10;99.90
32534;DHT22;18973;48.580;8.912;2023-01-31T01:06:38;2.10;99.90
32534;DHT22;18973;48.580;8.912;2023-01-31T01:09:06;2.00;99.90
32534;DHT22;18973;48.580;8.912;2023-01-31T01:11:33;1.80;99.90
32534;DHT22;18973;48.580;8.912;2023-01-31T01:13:59;1.80;99.90
32534;DHT22;18973;48.580;8.912;2023-01-31T01:16:30;1.80;99.90
32534;DHT22;18973;48.580;8.912;2023-01-31T01:18:56;1.70;99.90
32534;DHT22;18973;48.580;8.912;2023-01-31T01:21:25;1.80;99.90
32534;DHT22;18973;48.580;8.912;2023-01-31T01:23:52;1.80;99.90
32534;DHT22;18973;48.580;8.912;2023-01-31T01:26:21;1.90;99.90
32534;DHT22;18973;48.580;8.912;2023-01-31T01:28:48;1.80;99.90
32534;DHT22;18973;48.580;8.912;2023-01-31T01:31:14;1.70;99.90
32534;DHT22;18973;48.580;8.912;2023-01-31T01:33:41;1.70;99.90
32534;DHT22;18973;48.580;8.912;2023-01-31T01:36:08;1.60;99.90
32534;DHT22;18973;48.580;8.912;2023-01-31T01:38:38;1.60;99.90
32534;DHT22;18973;48.580;8.912;2023-01-31T01:41:05;1.60;99.90
32534;DHT22;18973;48.580;8.912;2023-01-31T01:43:52;1.50;99.90
32534;DHT22;18973;48.580;8.912;2023-01-31T01:46:32;1.50;99.90
32534;DHT22;18973;48.580;8.912;2023-01-31T01:49:28;1.40;99.90
32534;DHT22;18973;48.580;8.912;2023-01-31T01:52:01;1.30;99.90
32534;DHT22;18973;48.580;8.912;2023-01-31T01:54:35;1.40;99.90
32534;DHT22;18973;48.580;8.912;2023-01-31T01:57:03;1.40;99.90
32534;DHT22;18973;48.580;8.912;2023-01-31T01:59:37;1.30;99.90
32534;DHT22;18973;48.580;8.912;2023-01-31T02:02:04;1.40;99.90
32534;DHT22;18973;48.580;8.912;2023-01-31T02:04:35;1.50;99.90
32534;DHT22;18973;48.580;8.912;2023-01-31T02:07:01;1.50;99.90
32534;DHT22;18973;48.580;8.912;2023-01-31T02:12:05;1.40;99.90
32534;DHT22;18973;48.580;8.912;2023-01-31T02:14:31;1.50;99.90
32534;DHT22;18973;48.580;8.912;2023-01-31T02:16:57;1.50;99.90
32534;DHT22;18973;48.580;8.912;2023-01-31T02:19:39;1.50;99.90
32534;DHT22;18973;48.580;8.912;2023-01-31T02:22:19;1.60;99.90
32534;DHT22;18973;48.580;8.912;2023-01-31T02:33:43;1.30;99.90
32534;DHT22;18973;48.580;8.912;2023-01-31T02:36:37;1.40;99.90
32534;DHT22;18973;48.580;8.912;2023-01-31T02:41:56;1.40;99.90
32534;DHT22;18973;48.580;8.912;2023-01-31T02:47:43;1.40;99.90
32534;DHT22;18973;48.580;8.912;2023-01-31T02:52:58;1.40;99.90
32534;DHT22;18973;48.580;8.912;2023-01-31T02:58:33;1.20;99.90
32534;DHT22;18973;48.580;8.912;2023-01-31T03:01:02;1.10;99.90
32534;DHT22;18973;48.580;8.912;2023-01-31T03:03:32;1.20;99.90
32534;DHT22;18973;48.580;8.912;2023-01-31T03:22:38;1.40;99.90
32534;DHT22;18973;48.580;8.912;2023-01-31T03:25:06;1.40;99.90
32534;DHT22;18973;48.580;8.912;2023-01-31T03:27:33;1.60;99.90
32534;DHT22;18973;48.580;8.912;2023-01-31T03:30:11;1.80;99.90
32534;DHT22;18973;48.580;8.912;2023-01-31T03:33:25;1.70;99.90
32534;DHT22;18973;48.580;8.912;2023-01-31T03:36:16;1.90;99.90
32534;DHT22;18973;48.580;8.912;2023-01-31T03:42:07;1.60;99.90
32534;DHT22;18973;48.580;8.912;2023-01-31T03:44:57;1.40;99.90
32534;DHT22;18973;48.580;8.912;2023-01-31T03:47:43;1.40;99.90
32534;DHT22;18973;48.580;8.912;2023-01-31T03:50:34;1.60;99.90
32534;DHT22;18973;48.580;8.912;2023-01-31T03:53:07;1.80;99.90
32534;DHT22;18973;48.580;8.912;2023-01-31T03:55:47;1.90;99.90
32534;DHT22;18973;48.580;8.912;2023-01-31T03:58:16;1.90;99.90
32534;DHT22;18973;48.580;8.912;2023-01-31T04:00:45;1.80;99.90
32534;DHT22;18973;48.580;8.912;2023-01-31T04:05:49;2.00;99.90
32534;DHT22;18973;48.580;8.912;2023-01-31T04:08:15;2.00;99.90
32534;DHT22;18973;48.580;8.912;2023-01-31T04:10:41;2.00;99.90
32534;DHT22;18973;48.580;8.912;2023-01-31T04:13:07;1.90;99.90
32534;DHT22;18973;48.580;8.912;2023-01-31T04:15:33;1.90;99.90
32534;DHT22;18973;48.580;8.912;2023-01-31T04:17:59;2.10;99.90
32534;DHT22;18973;48.580;8.912;2023-01-31T04:20:24;2.20;99.90
32534;DHT22;18973;48.580;8.912;2023-01-31T04:22:52;2.20;99.90
32534;DHT22;18973;48.580;8.912;2023-01-31T04:25:18;2.20;99.90
32534;DHT22;18973;48.580;8.912;2023-01-31T04:27:44;2.10;99.90
32534;DHT22;18973;48.580;8.912;2023-01-31T04:30:10;2.00;99.90
32534;DHT22;18973;48.580;8.912;2023-01-31T04:32:36;1.90;99.90
32534;DHT22;18973;48.580;8.912;2023-01-31T04:35:01;1.70;99.90
32534;DHT22;18973;48.580;8.912;2023-01-31T04:37:27;1.60;99.90
32534;DHT22;18973;48.580;8.912;2023-01-31T04:39:53;1.70;99.90
32534;DHT22;18973;48.580;8.912;2023-01-31T04:42:18;1.70;99.90
32534;DHT22;18973;48.580;8.912;2023-01-31T04:44:44;1.60;99.90
32534;DHT22;18973;48.580;8.912;2023-01-31T04:47:13;1.50;99.90
32534;DHT22;18973;48.580;8.912;2023-01-31T04:49:38;1.30;99.90
32534;DHT22;18973;48.580;8.912;2023-01-31T04:52:05;1.30;99.90
32534;DHT22;18973;48.580;8.912;2023-01-31T04:54:30;1.30;99.90
32534;DHT22;18973;48.580;8.912;2023-01-31T04:56:57;1.30;99.90
32534;DHT22;18973;48.580;8.912;2023-01-31T04:59:22;1.30;99.90
32534;DHT22;18973;48.580;8.912;2023-01-31T05:01:48;1.30;99.90
32534;DHT22;18973;48.580;8.912;2023-01-31T05:04:14;1.30;99.90
32534;DHT22;18973;48.580;8.912;2023-01-31T05:06:40;1.50;99.90
32534;DHT22;18973;48.580;8.912;2023-01-31T05:09:05;1.60;99.90
32534;DHT22;18973;48.580;8.912;2023-01-31T05:11:32;1.60;99.90
32534;DHT22;18973;48.580;8.912;2023-01-31T05:13:57;1.60;99.90
32534;DHT22;18973;48.580;8.912;2023-01-31T05:16:23;1.70;99.90
32534;DHT22;18973;48.580;8.912;2023-01-31T05:18:49;1.70;99.90
32534;DHT22;18973;48.580;8.912;2023-01-31T05:21:15;1.80;99.90
32534;DHT22;18973;48.580;8.912;2023-01-31T05:23:41;1.90;99.90
32534;DHT22;18973;48.580;8.912;2023-01-31T05:26:07;2.00;99.90
32534;DHT22;18973;48.580;8.912;2023-01-31T05:28:33;1.90;99.90
32534;DHT22;18973;48.580;8.912;2023-01-31T05:31:04;2.00;99.90
32534;DHT22;18973;48.580;8.912;2023-01-31T05:33:31;2.10;99.90
32534;DHT22;18973;48.580;8.912;2023-01-31T05:35:58;2.20;99.90
32534;DHT22;18973;48.580;8.912;2023-01-31T05:38:24;2.00;99.90
32534;DHT22;18973;48.580;8.912;2023-01-31T05:40:50;1.80;99.90
32534;DHT22;18973;48.580;8.912;2023-01-31T05:43:16;1.80;99.90
32534;DHT22;18973;48.580;8.912;2023-01-31T05:45:42;1.80;99.90
32534;DHT22;18973;48.580;8.912;2023-01-31T05:48:08;1.90;99.90
32534;DHT22;18973;48.580;8.912;2023-01-31T05:50:34;1.90;99.90
32534;DHT22;18973;48.580;8.912;2023-01-31T05:53:00;2.00;99.90
32534;DHT22;18973;48.580;8.912;2023-01-31T05:55:28;2.10;99.90
32534;DHT22;18973;48.580;8.912;2023-01-31T05:57:54;2.20;99.90
32534;DHT22;18973;48.580;8.912;2023-01-31T06:00:20;2.00;99.90
32534;DHT22;18973;48.580;8.912;2023-01-31T06:02:46;2.00;99.90
32534;DHT22;18973;48.580;8.912;2023-01-31T06:05:13;2.10;99.90
32534;DHT22;18973;48.580;8.912;2023-01-31T06:07:39;1.90;99.90
32534;DHT22;18973;48.580;8.912;2023-01-31T06:10:06;1.90;99.90
32534;DHT22;18973;48.580;8.912;2023-01-31T06:12:32;1.80;99.90
32534;DHT22;18973;48.580;8.912;2023-01-31T06:14:59;1.70;99.90
32534;DHT22;18973;48.580;8.912;2023-01-31T06:17:25;1.50;99.90
32534;DHT22;18973;48.580;8.912;2023-01-31T06:19:51;1.60;99.90
32534;DHT22;18973;48.580;8.912;2023-01-31T06:22:17;1.50;99.90
32534;DHT22;18973;48.580;8.912;2023-01-31T06:24:43;1.40;99.90
32534;DHT22;18973;48.580;8.912;2023-01-31T06:27:09;1.40;99.90
32534;DHT22;18973;48.580;8.912;2023-01-31T06:29:34;1.50;99.90
32534;DHT22;18973;48.580;8.912;2023-01-31T06:32:00;1.40;99.90
32534;DHT22;18973;48.580;8.912;2023-01-31T06:34:26;1.30;99.90
32534;DHT22;18973;48.580;8.912;2023-01-31T06:36:52;1.20;99.90
32534;DHT22;18973;48.580;8.912;2023-01-31T06:39:17;1.10;99.90
32534;DHT22;18973;48.580;8.912;2023-01-31T06:41:45;1.20;99.90
32534;DHT22;18973;48.580;8.912;2023-01-31T06:44:11;1.20;99.90
32534;DHT22;18973;48.580;8.912;2023-01-31T06:46:37;1.20;99.90
32534;DHT22;18973;48.580;8.912;2023-01-31T06:49:03;1.10;99.90
32534;DHT22;18973;48.580;8.912;2023-01-31T06:51:29;1.20;99.90
32534;DHT22;18973;48.580;8.912;2023-01-31T06:53:54;1.30;99.90
32534;DHT22;18973;48.580;8.912;2023-01-31T06:56:21;1.40;99.90
32534;DHT22;18973;48.580;8.912;2023-01-31T06:58:47;1.20;99.90
32534;DHT22;18973;48.580;8.912;2023-01-31T07:01:13;1.20;99.90
32534;DHT22;18973;48.580;8.912;2023-01-31T07:03:40;1.10;99.90
32534;DHT22;18973;48.580;8.912;2023-01-31T07:06:07;1.10;99.90
32534;DHT22;18973;48.580;8.912;2023-01-31T07:08:33;1.00;99.90
32534;DHT22;18973;48.580;8.912;2023-01-31T07:10:59;1.10;99.90
32534;DHT22;18973;48.580;8.912;2023-01-31T07:13:28;1.30;99.90
32534;DHT22;18973;48.580;8.912;2023-01-31T07:15:55;1.20;99.90
32534;DHT22;18973;48.580;8.912;2023-01-31T07:18:20;1.10;99.90
32534;DHT22;18973;48.580;8.912;2023-01-31T07:20:46;1.30;99.90
32534;DHT22;18973;48.580;8.912;2023-01-31T07:23:12;1.20;99.90
32534;DHT22;18973;48.580;8.912;2023-01-31T07:25:37;1.30;99.90
32534;DHT22;18973;48.580;8.912;2023-01-31T07:28:03;1.20;99.90
32534;DHT22;18973;48.580;8.912;2023-01-31T07:30:32;1.10;99.90
32534;DHT22;18973;48.580;8.912;2023-01-31T07:32:59;1.20;99.90
32534;DHT22;18973;48.580;8.912;2023-01-31T07:35:25;1.20;99.90
32534;DHT22;18973;48.580;8.912;2023-01-31T07:37:52;1.30;99.90
32534;DHT22;18973;48.580;8.912;2023-01-31T07:40:18;1.20;99.90
32534;DHT22;18973;48.580;8.912;2023-01-31T07:42:44;1.30;99.90
32534;DHT22;18973;48.580;8.912;2023-01-31T07:45:12;1.30;99.90
32534;DHT22;18973;48.580;8.912;2023-01-31T07:47:38;1.30;99.90
32534;DHT22;18973;48.580;8.912;2023-01-31T07:50:04;1.40;99.90
32534;DHT22;18973;48.580;8.912;2023-01-31T07:52:31;1.50;99.90
32534;DHT22;18973;48.580;8.912;2023-01-31T07:54:56;1.80;99.90
32534;DHT22;18973;48.580;8.912;2023-01-31T07:57:22;2.20;99.90
32534;DHT22;18973;48.580;8.912;2023-01-31T07:59:48;2.60;99.90
32534;DHT22;18973;48.580;8.912;2023-01-31T08:02:16;2.90;99.90
32534;DHT22;18973;48.580;8.912;2023-01-31T08:05:01;3.20;99.90
32534;DHT22;18973;48.580;8.912;2023-01-31T08:07:28;3.80;99.90
32534;DHT22;18973;48.580;8.912;2023-01-31T08:09:54;4.00;99.90
32534;DHT22;18973;48.580;8.912;2023-01-31T08:12:23;4.70;99.90
32534;DHT22;18973;48.580;8.912;2023-01-31T08:14:48;4.90;99.90
32534;DHT22;18973;48.580;8.912;2023-01-31T08:17:17;5.50;99.90
32534;DHT22;18973;48.580;8.912;2023-01-31T08:19:42;6.10;99.90
32534;DHT22;18973;48.580;8.912;2023-01-31T08:22:08;6.80;99.90
32534;DHT22;18973;48.580;8.912;2023-01-31T08:27:10;8.00;99.90
32534;DHT22;18973;48.580;8.912;2023-01-31T08:29:36;8.70;99.90
32534;DHT22;18973;48.580;8.912;2023-01-31T08:32:02;9.40;98.70
32534;DHT22;18973;48.580;8.912;2023-01-31T08:34:28;9.60;97.20
32534;DHT22;18973;48.580;8.912;2023-01-31T08:36:53;9.80;95.60
32534;DHT22;18973;48.580;8.912;2023-01-31T08:39:19;10.30;94.50
32534;DHT22;18973;48.580;8.912;2023-01-31T08:41:45;10.50;93.90
32534;DHT22;18973;48.580;8.912;2023-01-31T08:44:15;10.40;93.00
32534;DHT22;18973;48.580;8.912;2023-01-31T08:46:41;10.50;93.60
32534;DHT22;18973;48.580;8.912;2023-01-31T08:49:07;10.60;93.30
32534;DHT22;18973;48.580;8.912;2023-01-31T08:51:33;10.70;93.20
32534;DHT22;18973;48.580;8.912;2023-01-31T08:54:02;10.90;92.20
32534;DHT22;18973;48.580;8.912;2023-01-31T08:56:28;10.60;91.60
32534;DHT22;18973;48.580;8.912;2023-01-31T08:58:54;10.00;93.30
32534;DHT22;18973;48.580;8.912;2023-01-31T09:01:21;9.90;94.40
32534;DHT22;18973;48.580;8.912;2023-01-31T09:03:47;10.00;94.60
32534;DHT22;18973;48.580;8.912;2023-01-31T09:06:17;9.60;94.20
32534;DHT22;18973;48.580;8.912;2023-01-31T09:08:43;9.30;96.00
32534;DHT22;18973;48.580;8.912;2023-01-31T09:11:09;9.10;95.90
32534;DHT22;18973;48.580;8.912;2023-01-31T09:13:35;8.60;96.30
32534;DHT22;18973;48.580;8.912;2023-01-31T09:16:09;8.00;97.80
32534;DHT22;18973;48.580;8.912;2023-01-31T09:18:37;7.60;98.60
32534;DHT22;18973;48.580;8.912;2023-01-31T09:21:11;7.50;99.90
32534;DHT22;18973;48.580;8.912;2023-01-31T09:23:37;7.50;99.90
32534;DHT22;18973;48.580;8.912;2023-01-31T09:26:03;7.40;99.90
32534;DHT22;18973;48.580;8.912;2023-01-31T09:28:30;7.30;99.90
32534;DHT22;18973;48.580;8.912;2023-01-31T09:31:04;7.30;99.90
32534;DHT22;18973;48.580;8.912;2023-01-31T09:33:30;7.10;99.90
32534;DHT22;18973;48.580;8.912;2023-01-31T09:35:59;6.90;99.90
32534;DHT22;18973;48.580;8.912;2023-01-31T09:38:35;6.80;99.90
32534;DHT22;18973;48.580;8.912;2023-01-31T09:41:43;7.00;99.90
32534;DHT22;18973;48.580;8.912;2023-01-31T09:44:23;7.10;99.90
32534;DHT22;18973;48.580;8.912;2023-01-31T09:49:57;7.20;99.90
32534;DHT22;18973;48.580;8.912;2023-01-31T09:52:24;7.30;99.90
32534;DHT22;18973;48.580;8.912;2023-01-31T09:54:52;7.40;99.90
32534;DHT22;18973;48.580;8.912;2023-01-31T09:57:44;7.50;99.90
32534;DHT22;18973;48.580;8.912;2023-01-31T10:03:15;6.70;99.90
32534;DHT22;18973;48.580;8.912;2023-01-31T10:06:08;6.40;99.90
32534;DHT22;18973;48.580;8.912;2023-01-31T10:11:34;6.00;99.90
32534;DHT22;18973;48.580;8.912;2023-01-31T10:18:00;5.50;99.90
32534;DHT22;18973;48.580;8.912;2023-01-31T10:21:32;5.40;99.90
32534;DHT22;18973;48.580;8.912;2023-01-31T10:23:35;5.40;99.90
32534;DHT22;18973;48.580;8.912;2023-01-31T10:26:19;5.40;99.90
32534;DHT22;18973;48.580;8.912;2023-01-31T10:28:59;5.20;99.90
32534;DHT22;18973;48.580;8.912;2023-01-31T10:31:59;5.10;99.90
32534;DHT22;18973;48.580;8.912;2023-01-31T10:40:11;5.00;99.90
32534;DHT22;18973;48.580;8.912;2023-01-31T10:42:39;5.30;99.90
32534;DHT22;18973;48.580;8.912;2023-01-31T10:45:22;5.60;99.90
32534;DHT22;18973;48.580;8.912;2023-01-31T11:03:27;5.80;99.90
32534;DHT22;18973;48.580;8.912;2023-01-31T11:05:56;5.70;99.90
32534;DHT22;18973;48.580;8.912;2023-01-31T11:11:09;5.70;99.90
32534;DHT22;18973;48.580;8.912;2023-01-31T11:13:35;5.70;99.90
32534;DHT22;18973;48.580;8.912;2023-01-31T11:16:03;5.70;99.90
32534;DHT22;18973;48.580;8.912;2023-01-31T11:18:35;5.70;99.90
32534;DHT22;18973;48.580;8.912;2023-01-31T11:21:01;5.90;99.90
32534;DHT22;18973;48.580;8.912;2023-01-31T11:23:30;6.10;99.90
32534;DHT22;18973;48.580;8.912;2023-01-31T11:25:57;6.20;99.90
32534;DHT22;18973;48.580;8.912;2023-01-31T11:28:35;6.20;99.90
32534;DHT22;18973;48.580;8.912;2023-01-31T11:31:03;6.30;99.90
32534;DHT22;18973;48.580;8.912;2023-01-31T11:33:40;6.20;99.90
32534;DHT22;18973;48.580;8.912;2023-01-31T11:36:16;6.20;99.90
32534;DHT22;18973;48.580;8.912;2023-01-31T11:38:50;5.90;99.90
32534;DHT22;18973;48.580;8.912;2023-01-31T11:41:28;5.80;99.90
32534;DHT22;18973;48.580;8.912;2023-01-31T11:44:16;5.70;99.90
32534;DHT22;18973;48.580;8.912;2023-01-31T11:46:52;5.80;99.90
32534;DHT22;18973;48.580;8.912;2023-01-31T11:52:18;5.90;99.90
32534;DHT22;18973;48.580;8.912;2023-01-31T11:54:48;5.90;99.90
32534;DHT22;18973;48.580;8.912;2023-01-31T11:57:26;6.00;99.90
32534;DHT22;18973;48.580;8.912;2023-01-31T11:59:55;5.90;99.90
32534;DHT22;18973;48.580;8.912;2023-01-31T12:04:56;6.50;99.90
32534;DHT22;18973;48.580;8.912;2023-01-31T12:07:27;7.20;99.90
32534;DHT22;18973;48.580;8.912;2023-01-31T12:09:56;7.70;99.90
32534;DHT22;18973;48.580;8.912;2023-01-31T12:12:34;7.60;99.90
32534;DHT22;18973;48.580;8.912;2023-01-31T12:15:12;7.80;99.90
32534;DHT22;18973;48.580;8.912;2023-01-31T12:17:47;7.90;99.30
32534;DHT22;18973;48.580;8.912;2023-01-31T12:20:24;7.20;99.30
32534;DHT22;18973;48.580;8.912;2023-01-31T12:23:01;6.60;99.90
32534;DHT22;18973;48.580;8.912;2023-01-31T12:28:30;6.10;99.90
32534;DHT22;18973;48.580;8.912;2023-01-31T12:36:24;5.70;99.90
32534;DHT22;18973;48.580;8.912;2023-01-31T12:52:04;5.40;99.90
32534;DHT22;18973;48.580;8.912;2023-01-31T13:00:23;5.10;99.90
32534;DHT22;18973;48.580;8.912;2023-01-31T13:08:24;4.80;99.90
32534;DHT22;18973;48.580;8.912;2023-01-31T13:11:07;4.80;99.90
32534;DHT22;18973;48.580;8.912;2023-01-31T13:13:44;4.80;99.90
32534;DHT22;18973;48.580;8.912;2023-01-31T13:16:20;4.80;99.90
32534;DHT22;18973;48.580;8.912;2023-01-31T13:18:50;4.80;99.90
32534;DHT22;18973;48.580;8.912;2023-01-31T13:21:20;4.70;99.90
32534;DHT22;18973;48.580;8.912;2023-01-31T13:23:57;4.70;99.90
32534;DHT22;18973;48.580;8.912;2023-01-31T13:26:29;4.60;99.90
32534;DHT22;18973;48.580;8.912;2023-01-31T13:29:04;4.50;99.90
32534;DHT22;18973;48.580;8.912;2023-01-31T13:31:58;4.40;99.90
32534;DHT22;18973;48.580;8.912;2023-01-31T13:34:29;4.50;99.90
32534;DHT22;18973;48.580;8.912;2023-01-31T13:37:01;4.50;99.90
32534;DHT22;18973;48.580;8.912;2023-01-31T13:41:57;4.50;99.90
32534;DHT22;18973;48.580;8.912;2023-01-31T13:44:25;4.50;99.90
32534;DHT22;18973;48.580;8.912;2023-01-31T13:47:14;4.60;99.90
32534;DHT22;18973;48.580;8.912;2023-01-31T13:49:48;4.50;99.90
32534;DHT22;18973;48.580;8.912;2023-01-31T13:52:43;4.50;99.90
32534;DHT22;18973;48.580;8.912;2023-01-31T13:55:43;4.50;99.90
32534;DHT22;18973;48.580;8.912;2023-01-31T14:00:48;4.50;99.90
32534;DHT22;18973;48.580;8.912;2023-01-31T14:03:19;4.40;99.90
32534;DHT22;18973;48.580;8.912;2023-01-31T14:06:00;4.40;99.90
32534;DHT22;18973;48.580;8.912;2023-01-31T14:10:53;4.50;99.90
32534;DHT22;18973;48.580;8.912;2023-01-31T14:15:57;4.50;99.90
32534;DHT22;18973;48.580;8.912;2023-01-31T14:18:38;4.60;99.90
32534;DHT22;18973;48.580;8.912;2023-01-31T14:23:56;4.50;99.90
32534;DHT22;18973;48.580;8.912;2023-01-31T14:26:49;4.60;99.90
32534;DHT22;18973;48.580;8.912;2023-01-31T14:29:18;4.60;99.90
32534;DHT22;18973;48.580;8.912;2023-01-31T14:31:46;4.50;99.90
32534;DHT22;18973;48.580;8.912;2023-01-31T14:34:16;4.60;99.90
32534;DHT22;18973;48.580;8.912;2023-01-31T14:53:33;4.50;99.90
32534;DHT22;18973;48.580;8.912;2023-01-31T14:58:53;4.40;99.90
32534;DHT22;18973;48.580;8.912;2023-01-31T15:01:20;4.50;99.90
32534;DHT22;18973;48.580;8.912;2023-01-31T15:03:51;4.50;99.90
32534;DHT22;18973;48.580;8.912;2023-01-31T15:06:32;4.50;99.90
32534;DHT22;18973;48.580;8.912;2023-01-31T15:11:56;4.50;99.90
32534;DHT22;18973;48.580;8.912;2023-01-31T15:14:39;4.60;99.90
32534;DHT22;18973;48.580;8.912;2023-01-31T15:17:18;4.50;99.90
32534;DHT22;18973;48.580;8.912;2023-01-31T15:20:12;4.50;99.90
32534;DHT22;18973;48.580;8.912;2023-01-31T15:22:40;4.50;99.90
32534;DHT22;18973;48.580;8.912;2023-01-31T15:25:25;4.40;99.90
32534;DHT22;18973;48.580;8.912;2023-01-31T15:27:55;4.40;99.90
32534;DHT22;18973;48.580;8.912;2023-01-31T15:30:21;4.40;99.90
32534;DHT22;18973;48.580;8.912;2023-01-31T15:33:06;4.30;99.90
32534;DHT22;18973;48.580;8.912;2023-01-31T15:35:45;4.30;99.90
32534;DHT22;18973;48.580;8.912;2023-01-31T15:43:36;4.40;99.90
32534;DHT22;18973;48.580;8.912;2023-01-31T15:46:29;4.40;99.90
32534;DHT22;18973;48.580;8.912;2023-01-31T15:48:56;4.40;99.90
32534;DHT22;18973;48.580;8.912;2023-01-31T15:51:22;4.50;99.90
32534;DHT22;18973;48.580;8.912;2023-01-31T15:53:48;4.50;99.90
32534;DHT22;18973;48.580;8.912;2023-01-31T15:56:25;4.50;99.90
32534;DHT22;18973;48.580;8.912;2023-01-31T15:58:55;4.50;99.90
32534;DHT22;18973;48.580;8.912;2023-01-31T16:01:22;4.50;99.90
32534;DHT22;18973;48.580;8.912;2023-01-31T16:03:57;4.60;99.90
32534;DHT22;18973;48.580;8.912;2023-01-31T16:08:53;4.60;99.90
32534;DHT22;18973;48.580;8.912;2023-01-31T16:11:19;4.60;99.90
32534;DHT22;18973;48.580;8.912;2023-01-31T16:13:46;4.60;99.90
32534;DHT22;18973;48.580;8.912;2023-01-31T16:16:13;4.60;99.90
32534;DHT22;18973;48.580;8.912;2023-01-31T16:18:42;4.60;99.90
32534;DHT22;18973;48.580;8.912;2023-01-31T16:21:40;4.50;99.90
32534;DHT22;18973;48.580;8.912;2023-01-31T16:27:01;4.50;99.90
32534;DHT22;18973;48.580;8.912;2023-01-31T16:32:22;4.40;99.90
32534;DHT22;18973;48.580;8.912;2023-01-31T16:35:01;4.60;99.90
32534;DHT22;18973;48.580;8.912;2023-01-31T16:37:47;4.70;99.90
32534;DHT22;18973;48.580;8.912;2023-01-31T16:40:36;4.70;99.90
32534;DHT22;18973;48.580;8.912;2023-01-31T16:46:05;4.40;99.90
32534;DHT22;18973;48.580;8.912;2023-01-31T16:48:37;4.40;99.90
32534;DHT22;18973;48.580;8.912;2023-01-31T16:54:18;4.20;99.90
32534;DHT22;18973;48.580;8.912;2023-01-31T16:57:10;4.30;99.90
32534;DHT22;18973;48.580;8.912;2023-01-31T17:04:42;4.20;99.90
32534;DHT22;18973;48.580;8.912;2023-01-31T17:07:16;4.20;99.90
32534;DHT22;18973;48.580;8.912;2023-01-31T17:09:42;4.10;99.90
32534;DHT22;18973;48.580;8.912;2023-01-31T17:12:28;4.20;99.90
32534;DHT22;18973;48.580;8.912;2023-01-31T17:14:54;4.20;99.90
32534;DHT22;18973;48.580;8.912;2023-01-31T17:17:28;4.20;99.90
32534;DHT22;18973;48.580;8.912;2023-01-31T17:19:55;4.20;99.90
32534;DHT22;18973;48.580;8.912;2023-01-31T17:22:20;4.30;99.90
32534;DHT22;18973;48.580;8.912;2023-01-31T17:24:50;4.30;99.90
32534;DHT22;18973;48.580;8.912;2023-01-31T17:27:17;4.40;99.90
32534;DHT22;18973;48.580;8.912;2023-01-31T17:29:44;4.40;99.90
32534;DHT22;18973;48.580;8.912;2023-01-31T17:32:15;4.40;99.90
32534;DHT22;18973;48.580;8.912;2023-01-31T17:34:42;4.40;99.90
32534;DHT22;18973;48.580;8.912;2023-01-31T17:37:11;4.30;99.90
32534;DHT22;18973;48.580;8.912;2023-01-31T17:39:37;4.40;99.90
32534;DHT22;18973;48.580;8.912;2023-01-31T17:42:04;4.30;99.90
32534;DHT22;18973;48.580;8.912;2023-01-31T17:44:30;4.30;99.90
32534;DHT22;18973;48.580;8.912;2023-01-31T17:46:56;4.40;99.90
32534;DHT22;18973;48.580;8.912;2023-01-31T17:49:21;4.30;99.90
32534;DHT22;18973;48.580;8.912;2023-01-31T17:51:47;4.20;99.90
32534;DHT22;18973;48.580;8.912;2023-01-31T17:54:13;4.20;99.90
32534;DHT22;18973;48.580;8.912;2023-01-31T17:56:39;4.30;99.90
32534;DHT22;18973;48.580;8.912;2023-01-31T17:59:04;4.30;99.90
32534;DHT22;18973;48.580;8.912;2023-01-31T18:01:33;4.20;99.90
32534;DHT22;18973;48.580;8.912;2023-01-31T18:04:00;4.20;99.90
32534;DHT22;18973;48.580;8.912;2023-01-31T18:06:26;4.20;99.90
32534;DHT22;18973;48.580;8.912;2023-01-31T18:08:52;4.20;99.90
32534;DHT22;18973;48.580;8.912;2023-01-31T18:11:17;4.10;99.90
32534;DHT22;18973;48.580;8.912;2023-01-31T18:13:43;4.10;99.90
32534;DHT22;18973;48.580;8.912;2023-01-31T18:16:11;4.20;99.90
32534;DHT22;18973;48.580;8.912;2023-01-31T18:18:39;4.10;99.90
32534;DHT22;18973;48.580;8.912;2023-01-31T18:21:10;4.10;99.90
32534;DHT22;18973;48.580;8.912;2023-01-31T18:23:35;4.20;99.90
32534;DHT22;18973;48.580;8.912;2023-01-31T18:26:06;4.20;99.90
32534;DHT22;18973;48.580;8.912;2023-01-31T18:28:32;4.20;99.90
32534;DHT22;18973;48.580;8.912;2023-01-31T18:31:05;4.10;99.90
32534;DHT22;18973;48.580;8.912;2023-01-31T18:33:38;4.10;99.90
32534;DHT22;18973;48.580;8.912;2023-01-31T18:36:05;4.10;99.90
32534;DHT22;18973;48.580;8.912;2023-01-31T18:38:31;4.10;99.90
32534;DHT22;18973;48.580;8.912;2023-01-31T18:40:57;4.10;99.90
32534;DHT22;18973;48.580;8.912;2023-01-31T18:43:25;4.00;99.90
32534;DHT22;18973;48.580;8.912;2023-01-31T18:45:51;4.00;99.90
32534;DHT22;18973;48.580;8.912;2023-01-31T18:48:16;4.00;99.90
32534;DHT22;18973;48.580;8.912;2023-01-31T18:50:42;4.00;99.90
32534;DHT22;18973;48.580;8.912;2023-01-31T18:53:08;4.00;99.90
32534;DHT22;18973;48.580;8.912;2023-01-31T18:55:33;4.00;99.90
32534;DHT22;18973;48.580;8.912;2023-01-31T18:57:59;3.90;99.90
32534;DHT22;18973;48.580;8.912;2023-01-31T19:00:25;3.90;99.90
32534;DHT22;18973;48.580;8.912;2023-01-31T19:02:52;3.90;99.90
32534;DHT22;18973;48.580;8.912;2023-01-31T19:05:18;3.90;99.90
32534;DHT22;18973;48.580;8.912;2023-01-31T19:07:46;3.90;99.90